Glenarden, Maryland
Current Conditions -  °F | °C
As of 7:28 AM on Monday 24 Nov 2014 (Local Time) from KADW Reporting Station
Broken Clouds Broken Clouds  
Wind Chill: 64°   Ceiling: 2700
Heat Index: 64°   Visibility: 10mi
Dew Point: 61°   Wind: 13mph
Humidity: 88%   Direction: 190°S
Pressure: 29.68"   Gusts: NA
Location:  38.8741°N, 76.7678°W
Report Text: KADW 241228Z AUTO 19011KT 10SM SCT020 BKN027 18/16 A2968 RMK AO2 $
Loading
Personal Weather Stations






























Interactive Weather Map New forecast layout! Learn more

10-Day Weather Forecast

Advertisements
Track Severe Weather on mobile